This is the latest recevied weather packets stored in our database for station/object W2TAO. If no packets are shown the sender has not sent any weather packets the latest 10 day(s).
| Time | Temp. | Humidity | Pressure | Rain* | Wind** | Luminosity | Snow |
|---|---|---|---|---|---|---|---|
| 1778188806 | 13.33° C | 45% | 1009.9 hPa | 0 mm | - | 91 W/m² | - |
| 1778188503 | 12.78° C | 46% | 1009.8 hPa | 0 mm | - | 133 W/m² | - |
| 1778188199 | 12.78° C | 45% | 1009.5 hPa | 0 mm | - | 113 W/m² | - |
| 1778187896 | 12.78° C | 42% | 1009.8 hPa | 0 mm | - | 153 W/m² | - |
| 1778187593 | 13.33° C | 45% | 1009.7 hPa | 0 mm | - | 130 W/m² | - |
| 1778187290 | 15° C | 39% | 1009.7 hPa | 0 mm | - | 500 W/m² | - |
| 1778186986 | 15.56° C | 40% | 1009.5 hPa | 0 mm | - | 516 W/m² | - |
| 1778186682 | 15° C | 39% | 1009.5 hPa | 0 mm | - | 578 W/m² | - |
| 1778186380 | 15° C | 40% | 1009.6 hPa | 0 mm | - | 556 W/m² | - |
| 1778186078 | 13.33° C | 44% | 1009.8 hPa | 0 mm | - | 572 W/m² | - |
| 1778185774 | 12.22° C | 43% | 1009.9 hPa | 0 mm | - | 126 W/m² | - |
| 1778185471 | 12.78° C | 42% | 1009.8 hPa | 0 mm | - | 92 W/m² | - |
| 1778185166 | 12.78° C | 41% | 1009.8 hPa | 0 mm | - | 115 W/m² | - |
| 1778184862 | 13.89° C | 40% | 1009.8 hPa | 0 mm | - | 123 W/m² | - |
| 1778184559 | 15° C | 40% | 1009.9 hPa | 0 mm | - | 632 W/m² | - |
| 1778184254 | 13.89° C | 41% | 1009.8 hPa | 0 mm | - | 701 W/m² | - |
| 1778183950 | 15° C | 38% | 1009.8 hPa | 0 mm | - | 718 W/m² | - |
| 1778183648 | 15° C | 39% | 1009.7 hPa | 0 mm | - | 688 W/m² | - |
| 1778183345 | 15.56° C | 41% | 1009.9 hPa | 0 mm | - | 720 W/m² | - |
| 1778183041 | 15.56° C | 39% | 1010 hPa | 0 mm | - | 773 W/m² | - |
| 1778182737 | 13.89° C | 42% | 1010.2 hPa | 0 mm | - | 780 W/m² | - |
| 1778182435 | 13.33° C | 45% | 1010 hPa | 0 mm | - | 323 W/m² | - |
| 1778182131 | 13.33° C | 42% | 1010.5 hPa | 0 mm | - | 225 W/m² | - |
| 1778181827 | 13.33° C | 45% | 1010.5 hPa | 0 mm | - | 282 W/m² | - |
| 1778181524 | 13.89° C | 43% | 1010.3 hPa | 0 mm | - | 238 W/m² | - |
* Rain latest hour (hover to see other rain measurements)
** Current wind speed in m/s (hover to see current wind gust speed)